Time;durP1;ratioP1;P1;durP2;ratioP2;P2;SDS_P1;SDS_P2;PMS_P1;PMS_P2;Temp;Humidity;BMP_temperature;BMP_pressure;BME280_temperature;BME280_humidity;BME280_pressure;Samples;Min_cycle;Max_cycle;Signal;HPM_P1;HPM_P2
2023/04/21 00:01:46;;;;;;;;;27.75;27.50;;;;;12.70;67.41;100784.81;5074309;28;45418;-74
2023/04/21 00:04:12;;;;;;;;;30.25;28.00;;;;;12.69;67.64;100781.28;5079171;28;46556;-74
2023/04/21 00:06:40;;;;;;;;;29.75;29.00;;;;;12.56;67.51;100763.31;5079434;28;45205;-74
2023/04/21 00:09:06;;;;;;;;;31.00;26.75;;;;;12.48;67.60;100766.91;5079685;28;45666;-75
2023/04/21 00:11:31;;;;;;;;;29.00;27.25;;;;;12.35;68.12;100753.41;5079186;28;45362;-74
2023/04/21 00:13:57;;;;;;;;;29.50;27.00;;;;;12.37;68.73;100762.06;5079234;28;46098;-74
2023/04/21 00:16:22;;;;;;;;;33.25;26.25;;;;;12.37;68.61;100759.41;5060819;28;45461;-75
2023/04/21 00:18:47;;;;;;;;;28.50;25.50;;;;;12.41;68.32;100760.66;5083062;28;45500;-74
2023/04/21 00:21:13;;;;;;;;;27.33;25.33;;;;;12.28;68.49;100732.03;5082829;28;45379;-75
2023/04/21 00:23:38;;;;;;;;;29.75;28.00;;;;;12.44;68.82;100757.63;5082840;28;46259;-75
2023/04/21 00:26:03;;;;;;;;;28.00;26.75;;;;;12.42;67.60;100754.31;5082876;28;45260;-74
2023/04/21 00:28:29;;;;;;;;;32.75;26.75;;;;;12.08;68.30;100697.13;5084381;27;45233;-75
2023/04/21 00:30:54;;;;;;;;;24.50;24.00;;;;;12.30;69.03;100739.84;5102943;27;45453;-73
2023/04/21 00:33:20;;;;;;;;;30.00;27.25;;;;;12.34;69.57;100741.09;5103142;27;45914;-74
2023/04/21 00:35:45;;;;;;;;;29.75;27.00;;;;;12.32;69.98;100735.13;5103063;27;45376;-74
2023/04/21 00:38:11;;;;;;;;;31.50;29.75;;;;;12.39;70.11;100741.34;5103213;27;45319;-74
2023/04/21 00:40:36;;;;;;;;;24.75;24.50;;;;;12.46;70.43;100733.47;5102940;27;45531;-74
2023/04/21 00:43:05;;;;;;;;;31.25;28.50;;;;;12.52;70.00;100731.88;5103046;27;45302;-74
2023/04/21 00:45:30;;;;;;;;;32.25;28.50;;;;;12.53;70.18;100717.53;5102865;27;45377;-74
2023/04/21 00:47:56;;;;;;;;;32.25;29.50;;;;;12.53;69.89;100717.53;5102660;27;45276;-75
2023/04/21 00:50:21;;;;;;;;;30.50;26.75;;;;;12.52;69.52;100731.88;5102790;27;45441;-74
2023/04/21 00:52:47;;;;;;;;;25.67;24.67;;;;;12.53;69.18;100722.84;5102938;27;46296;-75
2023/04/21 00:55:13;;;;;;;;;29.67;28.33;;;;;12.53;68.49;100723.69;5102854;27;45393;-75
2023/04/21 00:57:38;;;;;;;;;35.25;27.75;;;;;12.49;68.91;100711.75;5102914;27;45181;-74
2023/04/21 01:00:05;;;;;;;;;30.50;29.25;;;;;12.46;68.96;100717.47;5084210;27;45504;-74
2023/04/21 01:02:31;;;;;;;;;30.67;27.00;;;;;12.45;69.12;100719.28;5102562;27;45897;-74
2023/04/21 01:04:56;;;;;;;;;25.33;23.67;;;;;12.45;69.97;100718.50;5102038;27;45377;-74
2023/04/21 01:07:24;;;;;;;;;27.75;26.00;;;;;12.48;70.31;100716.25;5102532;27;45241;-75
2023/04/21 01:09:49;;;;;;;;;34.00;29.25;;;;;12.35;70.54;100686.78;5102553;27;45292;-74
2023/04/21 01:12:15;;;;;;;;;28.33;26.00;;;;;12.49;70.11;100704.56;5102430;27;45361;-75
2023/04/21 01:14:40;;;;;;;;;29.75;27.00;;;;;12.57;70.55;100716.97;5102209;27;45327;-74
2023/04/21 01:17:07;;;;;;;;;31.67;27.67;;;;;12.59;70.05;100712.28;5084155;27;45403;-75
2023/04/21 01:19:38;;;;;;;;;23.00;22.00;;;;;12.61;70.30;100710.22;5102460;27;45358;-75
2023/04/21 01:22:03;;;;;;;;;28.33;25.67;;;;;12.58;70.40;100705.31;5101921;27;45449;-75
2023/04/21 01:24:36;;;;;;;;;33.00;27.67;;;;;12.52;70.44;100678.56;5102392;27;45347;-74
2023/04/21 01:27:02;;;;;;;;;28.00;27.67;;;;;12.63;70.49;100686.88;5102573;27;45164;-75
2023/04/21 01:29:32;;;;;;;;;27.67;24.33;;;;;12.52;69.76;100673.22;5091226;27;45241;-75
2023/04/21 01:31:58;;;;;;;;;29.50;26.50;;;;;12.69;70.39;100689.81;5081390;28;45435;-74
2023/04/21 01:34:23;;;;;;;;;32.00;29.00;;;;;12.58;71.06;100683.97;5081678;28;45311;-75
2023/04/21 01:36:48;;;;;;;;;26.25;26.25;;;;;12.59;70.60;100684.78;5081797;28;45356;-75
2023/04/21 01:39:14;;;;;;;;;31.50;28.00;;;;;12.62;70.72;100690.56;5081670;28;45556;-74
2023/04/21 01:41:39;;;;;;;;;33.50;30.00;;;;;12.58;70.83;100672.47;5081622;28;46036;-74
2023/04/21 01:44:04;;;;;;;;;32.50;30.00;;;;;12.56;70.57;100666.50;5081754;28;45265;-74
2023/04/21 01:46:30;;;;;;;;;26.00;24.00;;;;;12.62;70.26;100682.56;5081385;28;45242;-75
2023/04/21 01:48:55;;;;;;;;;29.50;26.75;;;;;12.54;69.55;100673.88;5081521;28;45480;-74
2023/04/21 01:51:20;;;;;;;;;32.00;29.75;;;;;12.47;69.81;100666.63;5081429;28;46441;-75
2023/04/21 01:53:46;;;;;;;;;24.67;23.67;;;;;12.44;70.31;100677.66;5081610;28;45197;-75
2023/04/21 01:56:14;;;;;;;;;28.25;22.75;;;;;12.50;70.85;100676.91;5081266;28;45383;-75
2023/04/21 01:58:39;;;;;;;;;24.33;23.67;;;;;12.53;70.85;100673.03;5081466;28;45273;-75
2023/04/21 02:01:05;;;;;;;;;31.75;30.00;;;;;12.49;70.76;100680.59;5081051;28;45723;-74
2023/04/21 02:03:30;;;;;;;;;28.00;24.25;;;;;12.46;70.77;100673.00;5081356;28;45444;-75
2023/04/21 02:05:55;;;;;;;;;33.50;30.00;;;;;12.46;70.91;100680.16;5081423;28;45375;-75
2023/04/21 02:08:21;;;;;;;;;32.25;32.00;;;;;12.39;71.08;100660.59;5081229;28;45378;-75
2023/04/21 02:10:46;;;;;;;;;26.75;25.75;;;;;12.53;71.43;100670.38;5081220;28;45374;-75
2023/04/21 02:13:11;;;;;;;;;27.00;25.50;;;;;12.54;71.33;100671.22;5081200;28;45493;-75
2023/04/21 02:15:37;;;;;;;;;31.00;27.00;;;;;12.42;72.05;100660.22;5081064;28;45376;-75
2023/04/21 02:18:02;;;;;;;;;29.50;27.00;;;;;12.41;72.28;100659.38;5081049;28;45353;-75
2023/04/21 02:20:28;;;;;;;;;30.00;30.00;;;;;12.47;72.80;100666.63;5080928;28;45374;-75
2023/04/21 02:22:53;;;;;;;;;29.50;27.50;;;;;12.45;73.77;100670.50;5080987;28;45280;-75
2023/04/21 02:25:19;;;;;;;;;33.25;32.00;;;;;12.36;74.21;100648.44;5062661;28;45304;-75
2023/04/21 02:27:44;;;;;;;;;33.00;30.75;;;;;12.53;73.65;100658.88;5080990;28;45217;-75
2023/04/21 02:30:10;;;;;;;;;29.33;25.33;;;;;12.47;73.33;100660.47;5096080;27;45895;-75
2023/04/21 02:32:35;;;;;;;;;33.75;28.75;;;;;12.44;73.12;100637.69;5101272;27;45157;-75
2023/04/21 02:35:00;;;;;;;;;33.25;31.50;;;;;12.65;72.65;100661.88;5101298;27;45305;-75
2023/04/21 02:37:26;;;;;;;;;34.50;30.75;;;;;12.76;72.13;100658.72;5082808;27;47096;-75
2023/04/21 02:39:51;;;;;;;;;34.25;28.75;;;;;12.66;72.75;100644.88;5100628;27;45165;-75
2023/04/21 02:42:16;;;;;;;;;33.50;29.25;;;;;12.60;73.22;100657.94;5100598;27;45265;-75
2023/04/21 02:44:42;;;;;;;;;31.50;29.50;;;;;12.62;73.91;100650.59;5101046;27;45242;-75
2023/04/21 02:47:07;;;;;;;;;32.00;28.75;;;;;12.69;74.30;100663.97;5082552;27;45882;-75
2023/04/21 02:49:32;;;;;;;;;33.50;29.00;;;;;12.69;74.83;100647.16;5100986;27;45722;-75
2023/04/21 02:51:58;;;;;;;;;30.25;28.00;;;;;12.80;74.98;100656.47;5083734;27;45263;-75
2023/04/21 02:54:23;;;;;;;;;24.25;21.75;;;;;12.82;74.66;100647.28;5062395;28;45387;-75
2023/04/21 02:56:49;;;;;;;;;30.50;27.50;;;;;12.84;74.85;100644.44;5080471;28;45450;-75
2023/04/21 02:59:15;;;;;;;;;28.00;25.67;;;;;12.93;74.62;100653.94;5062070;28;45729;-75
2023/04/21 03:01:41;;;;;;;;;26.00;24.00;;;;;13.02;74.79;100643.13;5060097;28;45360;-75
2023/04/21 03:04:06;;;;;;;;;27.00;24.50;;;;;12.97;73.86;100644.53;5060356;28;45311;-75
2023/04/21 03:06:32;;;;;;;;;31.25;25.00;;;;;13.04;73.51;100646.41;5059925;28;45300;-75
2023/04/21 03:08:57;;;;;;;;;30.75;28.75;;;;;12.99;74.02;100645.16;5059987;28;46279;-75
2023/04/21 03:11:23;;;;;;;;;27.00;24.33;;;;;13.00;74.11;100652.13;5060021;28;45250;-75
2023/04/21 03:13:48;;;;;;;;;27.50;26.75;;;;;13.03;74.28;100652.78;5060048;28;45311;-75
2023/04/21 03:16:14;;;;;;;;;28.25;25.50;;;;;12.98;74.41;100629.34;5059643;28;45538;-75
2023/04/21 03:18:39;;;;;;;;;28.25;24.25;;;;;12.93;73.95;100624.59;5059879;28;45288;-75
2023/04/21 03:21:05;;;;;;;;;28.50;28.25;;;;;13.05;73.97;100629.41;5059738;28;45280;-75
2023/04/21 03:23:30;;;;;;;;;28.50;26.25;;;;;13.15;75.05;100627.22;5041764;28;45216;-76
2023/04/21 03:25:55;;;;;;;;;26.75;26.75;;;;;13.06;74.26;100613.22;5041666;28;47774;-76
2023/04/21 03:28:20;;;;;;;;;31.25;27.75;;;;;13.17;74.34;100625.16;5060286;28;45234;-75
2023/04/21 03:30:46;;;;;;;;;30.50;28.75;;;;;13.17;74.65;100617.16;5061459;28;45195;-75
2023/04/21 03:33:11;;;;;;;;;24.67;23.33;;;;;13.26;74.22;100608.00;5080142;28;45306;-75
2023/04/21 03:35:36;;;;;;;;;28.25;27.50;;;;;13.31;74.18;100618.09;5079714;28;45580;-75
2023/04/21 03:38:02;;;;;;;;;31.75;27.25;;;;;13.23;74.26;100603.06;5079814;28;45459;-75
2023/04/21 03:40:28;;;;;;;;;26.00;24.00;;;;;13.31;74.10;100617.25;5079967;28;45154;-75
2023/04/21 03:42:53;;;;;;;;;26.75;25.25;;;;;13.32;74.54;100618.94;5080015;28;45389;-75
2023/04/21 03:45:21;;;;;;;;;29.50;29.00;;;;;13.33;74.73;100616.06;5079379;28;45556;-75
2023/04/21 03:47:46;;;;;;;;;27.67;25.67;;;;;13.23;73.99;100599.56;5079471;28;46204;-75
2023/04/21 03:50:12;;;;;;;;;26.00;25.00;;;;;13.35;74.18;100611.34;5079550;28;45481;-75
2023/04/21 03:52:37;;;;;;;;;28.00;26.00;;;;;13.35;74.36;100610.53;5081816;28;45374;-75
2023/04/21 03:55:03;;;;;;;;;29.50;27.00;;;;;13.33;74.02;100591.22;5083303;28;45311;-75
2023/04/21 03:57:29;;;;;;;;;29.00;26.00;;;;;13.35;74.14;100597.19;5083311;28;45328;-76
2023/04/21 03:59:55;;;;;;;;;30.67;26.67;;;;;13.39;74.07;100601.91;5083139;28;45217;-75
2023/04/21 04:02:20;;;;;;;;;31.50;27.50;;;;;13.37;73.58;100601.31;5083130;28;45288;-75
2023/04/21 04:04:46;;;;;;;;;33.00;28.25;;;;;13.37;73.78;100587.13;5083232;28;45481;-75
2023/04/21 04:07:11;;;;;;;;;32.00;29.25;;;;;13.34;73.91;100584.84;5083113;28;45236;-75
2023/04/21 04:09:36;;;;;;;;;30.00;25.50;;;;;13.28;73.76;100583.78;5083135;28;45211;-75
2023/04/21 04:12:02;;;;;;;;;28.33;25.33;;;;;13.30;73.76;100578.25;5083272;28;45268;-75
2023/04/21 04:14:30;;;;;;;;;28.00;24.75;;;;;13.28;73.70;100582.94;5082642;28;45309;-75
2023/04/21 04:16:55;;;;;;;;;26.75;26.25;;;;;13.17;73.30;100573.66;5083026;28;45411;-75
2023/04/21 04:19:20;;;;;;;;;28.25;28.00;;;;;13.25;72.84;100590.34;5082914;28;45291;-75
2023/04/21 04:21:46;;;;;;;;;33.50;30.25;;;;;13.23;73.18;100589.72;5082955;28;45402;-75
2023/04/21 04:24:12;;;;;;;;;26.33;23.00;;;;;13.16;73.04;100586.19;5082897;28;45496;-75
2023/04/21 04:26:38;;;;;;;;;29.00;28.33;;;;;13.08;73.57;100597.00;5082863;28;46048;-75
2023/04/21 04:29:09;;;;;;;;;29.67;26.00;;;;;12.97;73.79;100582.34;5082440;28;45321;-75
2023/04/21 04:31:34;;;;;;;;;32.67;26.67;;;;;12.98;73.81;100602.66;5082545;28;45477;-75
2023/04/21 04:34:00;;;;;;;;;34.75;29.75;;;;;12.89;74.32;100599.31;5082702;28;45290;-75
2023/04/21 04:36:27;;;;;;;;;26.33;26.00;;;;;12.68;74.85;100602.84;5082536;28;45665;-75
2023/04/21 04:38:52;;;;;;;;;33.67;29.67;;;;;12.80;75.04;100593.31;5082620;28;45458;-75
2023/04/21 04:41:19;;;;;;;;;28.75;27.25;;;;;12.73;75.26;100579.94;5082850;28;45324;-75
2023/04/21 04:43:46;;;;;;;;;30.00;27.00;;;;;12.74;75.31;100596.75;5082548;28;45541;-75
2023/04/21 04:46:11;;;;;;;;;24.67;21.67;;;;;12.79;74.96;100597.00;5082080;28;46163;-75
2023/04/21 04:48:37;;;;;;;;;33.67;29.67;;;;;12.85;74.99;100603.41;5082442;28;45145;-75
2023/04/21 04:51:02;;;;;;;;;32.00;28.67;;;;;12.84;75.14;100613.22;5082483;28;45306;-75
2023/04/21 04:53:28;;;;;;;;;29.67;25.67;;;;;12.65;74.80;100588.03;5082545;28;45465;-75
2023/04/21 04:55:53;;;;;;;;;25.33;22.67;;;;;12.71;75.35;100603.28;5082277;28;46225;-75
2023/04/21 04:58:19;;;;;;;;;33.75;30.25;;;;;12.72;75.73;100614.78;5082381;28;45371;-75
2023/04/21 05:00:44;;;;;;;;;31.67;30.33;;;;;12.69;76.57;100602.63;5082396;28;45402;-75
2023/04/21 05:03:10;;;;;;;;;34.25;33.75;;;;;12.73;77.30;100606.59;5081451;28;45303;-75
2023/04/21 05:05:35;;;;;;;;;32.25;31.50;;;;;12.79;77.89;100612.16;5074590;28;45514;-75
2023/04/21 05:08:00;;;;;;;;;40.50;35.50;;;;;12.83;77.95;100616.94;5072565;28;45277;-75
2023/04/21 05:10:26;;;;;;;;;40.50;33.25;;;;;12.86;77.25;100611.22;5073218;28;45378;-75
2023/04/21 05:12:51;;;;;;;;;31.75;30.75;;;;;12.86;78.43;100603.22;5081314;28;45372;-75
2023/04/21 05:15:17;;;;;;;;;33.25;29.75;;;;;12.92;78.35;100603.44;5081175;28;45304;-76
2023/04/21 05:17:42;;;;;;;;;35.25;31.00;;;;;12.97;77.60;100604.53;5082139;28;45393;-75
2023/04/21 05:20:08;;;;;;;;;34.50;30.75;;;;;13.00;78.42;100603.31;5082123;28;45475;-75
2023/04/21 05:22:37;;;;;;;;;33.00;31.75;;;;;13.02;78.02;100592.44;5081928;28;45477;-75
2023/04/21 05:25:03;;;;;;;;;39.75;31.25;;;;;13.03;78.27;100599.41;5080580;28;45935;-74
2023/04/21 05:27:28;;;;;;;;;30.50;27.75;;;;;12.87;78.24;100575.50;5081640;28;45667;-74
2023/04/21 05:29:54;;;;;;;;;33.00;32.00;;;;;12.91;78.73;100586.63;5081518;28;45438;-74
2023/04/21 05:32:19;;;;;;;;;38.75;32.75;;;;;12.96;78.31;100589.53;5081881;28;45306;-76
2023/04/21 05:34:45;;;;;;;;;37.75;34.00;;;;;13.02;78.42;100593.25;5081664;28;46465;-74
2023/04/21 05:37:11;;;;;;;;;34.00;32.25;;;;;13.05;78.05;100602.72;5081717;28;45315;-74
2023/04/21 05:39:36;;;;;;;;;35.75;33.00;;;;;13.02;78.23;100603.13;5081898;28;45430;-75
2023/04/21 05:42:01;;;;;;;;;29.50;29.50;;;;;12.93;78.75;100587.25;5081602;28;47400;-75
2023/04/21 05:44:27;;;;;;;;;40.50;34.25;;;;;13.08;79.04;100589.00;5063125;28;46993;-75
2023/04/21 05:46:52;;;;;;;;;35.50;30.00;;;;;13.20;78.54;100598.09;5081363;28;45430;-74
2023/04/21 05:49:18;;;;;;;;;32.25;30.50;;;;;13.19;79.20;100601.81;5081785;28;45344;-77
2023/04/21 05:51:43;;;;;;;;;37.25;33.25;;;;;13.23;79.18;100597.72;5080787;28;45437;-76
2023/04/21 05:54:08;;;;;;;;;37.00;33.25;;;;;13.28;79.02;100596.28;5082302;28;46131;-76
2023/04/21 05:56:34;;;;;;;;;38.25;34.25;;;;;13.32;79.00;100597.56;5081468;28;45323;-76
2023/04/21 05:58:59;;;;;;;;;34.00;32.25;;;;;13.25;79.59;100576.16;5081369;28;45257;-77
2023/04/21 06:01:24;;;;;;;;;34.50;32.50;;;;;13.37;79.17;100587.13;5063238;28;45899;-77
2023/04/21 06:03:50;;;;;;;;;36.00;32.25;;;;;13.46;79.42;100595.78;5081151;28;46575;-77
2023/04/21 06:06:16;;;;;;;;;37.75;33.25;;;;;13.51;79.54;100588.06;5081204;28;45273;-77
2023/04/21 06:08:42;;;;;;;;;32.75;31.75;;;;;13.64;78.91;100589.97;5063209;28;45283;-77
2023/04/21 06:11:07;;;;;;;;;38.25;34.25;;;;;13.66;78.55;100593.25;5081042;28;45423;-77
2023/04/21 06:13:32;;;;;;;;;32.25;31.50;;;;;13.65;79.20;100574.78;5081187;28;46011;-77
2023/04/21 06:15:58;;;;;;;;;39.00;32.50;;;;;13.68;79.07;100585.06;5080516;28;45320;-77
2023/04/21 06:18:26;;;;;;;;;40.50;33.50;;;;;13.69;79.04;100576.84;5081332;28;45568;-77
2023/04/21 06:20:53;;;;;;;;;38.00;33.50;;;;;13.74;78.64;100579.72;5080954;28;45410;-77
2023/04/21 06:23:18;;;;;;;;;37.50;35.00;;;;;13.69;78.63;100570.66;5081255;28;46143;-77
2023/04/21 06:25:43;;;;;;;;;42.50;35.25;;;;;13.79;78.44;100587.16;5080930;28;45137;-77
2023/04/21 06:28:09;;;;;;;;;32.50;30.75;;;;;13.63;78.45;100554.44;5062621;28;45276;-77
2023/04/21 06:30:34;;;;;;;;;37.25;33.75;;;;;13.78;78.50;100580.16;5084082;27;45521;-78
2023/04/21 06:32:59;;;;;;;;;43.00;35.50;;;;;13.85;79.22;100591.69;5089310;27;46288;-77
2023/04/21 06:35:25;;;;;;;;;34.75;32.00;;;;;13.91;79.59;100587.41;5094785;27;45888;-78
2023/04/21 06:37:50;;;;;;;;;28.00;22.75;;;;;14.01;79.00;100590.50;5087260;27;45607;-77
2023/04/21 06:40:15;;;;;;;;;33.00;31.50;;;;;14.12;78.99;100585.59;5097144;27;46037;-76
2023/04/21 06:42:41;;;;;;;;;35.50;32.00;;;;;14.11;78.26;100583.97;5094597;27;45800;-76
2023/04/21 06:45:07;;;;;;;;;41.25;36.00;;;;;14.16;78.64;100584.19;5097748;27;45409;-77
2023/04/21 06:47:32;;;;;;;;;49.75;40.75;;;;;14.22;78.38;100596.72;5078662;27;45403;-77
2023/04/21 06:49:58;;;;;;;;;46.25;38.00;;;;;14.21;78.69;100581.72;5069185;27;45944;-76
2023/04/21 06:52:23;;;;;;;;;42.50;36.00;;;;;14.29;78.79;100593.25;5080504;27;46534;-77
2023/04/21 06:54:48;;;;;;;;;27.50;26.50;;;;;14.34;78.13;100588.94;5084981;27;45709;-77
2023/04/21 06:57:14;;;;;;;;;34.25;32.25;;;;;14.38;79.10;100594.72;5085442;27;45940;-76
2023/04/21 06:59:39;;;;;;;;;38.75;36.25;;;;;14.45;78.86;100594.72;5099792;27;45499;-78
2023/04/21 07:02:05;;;;;;;;;57.00;46.25;;;;;14.67;78.19;100587.34;5099737;27;45487;-77
2023/04/21 07:04:31;;;;;;;;;35.00;32.50;;;;;14.84;76.67;100585.09;5099711;27;45586;-77
2023/04/21 07:06:56;;;;;;;;;33.00;31.25;;;;;14.85;76.98;100580.59;5099695;27;45374;-77
2023/04/21 07:09:22;;;;;;;;;37.75;34.00;;;;;14.64;77.13;100582.41;5100170;27;45424;-80
2023/04/21 07:11:47;;;;;;;;;41.25;35.75;;;;;14.65;77.54;100581.38;5100273;27;45319;-79
2023/04/21 07:14:12;;;;;;;;;40.50;32.50;;;;;14.66;76.93;100584.88;5099256;27;45396;-79
2023/04/21 07:16:38;;;;;;;;;36.00;33.50;;;;;14.64;77.43;100563.69;5100042;27;45939;-77
2023/04/21 07:19:03;;;;;;;;;42.75;35.50;;;;;14.74;77.18;100576.63;5081226;27;46416;-76
2023/04/21 07:21:30;;;;;;;;;35.75;34.00;;;;;14.69;75.84;100558.53;5081842;27;48006;-78
2023/04/21 07:23:57;;;;;;;;;35.50;34.00;;;;;14.66;75.24;100558.13;5100560;27;45330;-77
2023/04/21 07:26:22;;;;;;;;;37.25;32.00;;;;;14.75;75.12;100571.09;5077874;27;45177;-78
2023/04/21 07:28:49;;;;;;;;;36.50;32.00;;;;;14.67;74.84;100547.22;5062037;28;47247;-79
2023/04/21 07:31:14;;;;;;;;;30.75;29.00;;;;;14.79;74.94;100565.34;5061010;28;48542;-78
2023/04/21 07:33:48;;;;;;;;;12.25;10.50;;;;;14.80;75.36;100557.13;5059148;28;45495;-80
2023/04/21 07:36:14;;;;;;;;;38.00;35.25;;;;;14.84;74.36;100568.22;5057728;28;45392;-80
2023/04/21 07:38:42;;;;;;;;;68.50;53.25;;;;;14.75;74.71;100548.84;5057679;28;45697;-79
2023/04/21 07:41:13;;;;;;;;;60.75;47.25;;;;;14.81;75.86;100544.59;5059055;28;45406;-80
2023/04/21 07:43:39;;;;;;;;;36.67;31.33;;;;;14.87;76.18;100554.44;5040898;28;45499;-78
2023/04/21 07:46:05;;;;;;;;;67.00;51.00;;;;;15.05;76.14;100577.06;5058869;28;45500;-78
2023/04/21 07:48:31;;;;;;;;;49.00;36.00;;;;;15.10;74.89;100570.06;5058054;28;45996;-76
2023/04/21 07:50:59;;;;;;;;;154.00;132.67;;;;;15.13;75.59;100572.31;5078506;28;45978;-77
2023/04/21 07:53:28;;;;;;;;;52.75;43.50;;;;;15.12;75.18;100557.28;5074568;28;46046;-74
2023/04/21 07:55:53;;;;;;;;;41.25;35.25;;;;;15.22;75.16;100564.88;5041104;28;45371;-77
2023/04/21 07:58:19;;;;;;;;;53.50;44.25;;;;;15.29;76.87;100556.81;5074534;28;46433;-77
2023/04/21 08:00:45;;;;;;;;;74.25;56.50;;;;;15.42;75.80;100555.97;5058809;28;46008;-78
2023/04/21 08:03:10;;;;;;;;;35.67;33.67;;;;;15.43;74.70;100541.53;5058952;28;45523;-77
2023/04/21 08:05:36;;;;;;;;;30.67;29.33;;;;;15.58;74.36;100559.19;5074515;28;45367;-77
2023/04/21 08:08:02;;;;;;;;;31.67;28.00;;;;;15.54;73.67;100550.78;5074416;28;45980;-78
2023/04/21 08:10:30;;;;;;;;;30.67;29.33;;;;;15.67;74.11;100571.31;5040732;28;48274;-78
2023/04/21 08:12:55;;;;;;;;;55.25;46.00;;;;;15.68;74.12;100562.25;5064457;27;45413;-78
2023/04/21 08:15:21;;;;;;;;;53.75;41.25;;;;;15.84;73.81;100558.28;5080931;27;45475;-77
2023/04/21 08:17:46;;;;;;;;;43.00;36.25;;;;;15.83;73.05;100545.91;5081103;27;45472;-77
2023/04/21 08:20:12;;;;;;;;;28.67;26.33;;;;;15.86;72.51;100547.34;5098733;27;45270;-73
2023/04/21 08:22:37;;;;;;;;;27.33;27.33;;;;;15.89;73.00;100563.81;5099624;27;45576;-77
2023/04/21 08:25:04;;;;;;;;;69.00;53.00;;;;;15.91;71.85;100558.22;5081399;27;46074;-77
2023/04/21 08:27:29;;;;;;;;;43.75;34.25;;;;;16.01;72.39;100558.63;5099433;27;45441;-77
2023/04/21 08:29:55;;;;;;;;;58.75;45.00;;;;;16.02;72.52;100557.56;5098717;27;45513;-77
2023/04/21 08:32:25;;;;;;;;;32.33;31.33;;;;;16.25;71.96;100561.56;5099324;27;45386;-75
2023/04/21 08:34:51;;;;;;;;;29.33;26.67;;;;;16.19;70.78;100549.00;5095556;27;45211;-78
2023/04/21 08:37:18;;;;;;;;;29.33;29.00;;;;;16.31;70.52;100559.06;5078501;28;45198;-78
2023/04/21 08:39:44;;;;;;;;;49.75;40.75;;;;;16.46;70.74;100561.44;5082325;28;45379;-77
2023/04/21 08:42:10;;;;;;;;;33.33;29.00;;;;;16.45;69.99;100554.41;5082404;28;45482;-81
2023/04/21 08:44:36;;;;;;;;;31.33;28.33;;;;;16.46;70.80;100553.38;5082249;28;45537;-81
2023/04/21 08:47:02;;;;;;;;;29.00;28.00;;;;;16.65;69.85;100571.16;5063754;28;45815;-81
2023/04/21 08:49:30;;;;;;;;;29.33;29.33;;;;;16.82;69.32;100569.81;5082362;28;45299;-80
2023/04/21 08:51:55;;;;;;;;;27.33;24.67;;;;;16.87;68.43;100561.91;5081647;28;45291;-74
2023/04/21 08:54:20;;;;;;;;;25.00;24.33;;;;;17.02;67.00;100554.34;5075872;28;45851;-77
2023/04/21 08:56:49;;;;;;;;;27.00;27.00;;;;;17.06;68.16;100551.22;5075940;28;45593;-76
2023/04/21 08:59:14;;;;;;;;;28.67;27.00;;;;;17.28;66.69;100567.72;5078771;27;45429;-78
2023/04/21 09:02:05;;;;;;;;;48.50;40.50;;;;;17.43;65.90;100559.31;5080733;28;45453;-76
2023/04/21 09:04:31;;;;;;;;;20.00;19.67;;;;;17.32;64.75;100547.44;5075390;27;45402;-76
2023/04/21 09:06:56;;;;;;;;;28.67;27.33;;;;;17.27;63.99;100550.00;5080446;28;45349;-76
2023/04/21 09:09:22;;;;;;;;;22.00;21.67;;;;;17.25;64.27;100552.06;5079329;28;46480;-77
2023/04/21 09:11:56;;;;;;;;;32.00;28.00;;;;;17.22;64.21;100558.72;5080283;28;45461;-77
2023/04/21 09:14:21;;;;;;;;;27.00;26.00;;;;;17.24;63.67;100564.66;5062771;28;45388;-76
2023/04/21 09:16:59;;;;;;;;;61.25;47.25;;;;;17.22;63.71;100544.44;5059073;28;45977;-77
2023/04/21 09:19:26;;;;;;;;;35.33;30.33;;;;;17.32;64.09;100552.81;5081759;28;45425;-75
2023/04/21 09:21:52;;;;;;;;;32.00;29.33;;;;;17.38;63.93;100557.28;5081572;28;45340;-76
2023/04/21 09:24:18;;;;;;;;;34.00;29.00;;;;;17.39;63.82;100548.16;5084624;27;45427;-77
2023/04/21 09:26:48;;;;;;;;;29.00;28.67;;;;;17.54;63.53;100547.00;5082518;27;45463;-76
2023/04/21 09:29:13;;;;;;;;;26.67;26.00;;;;;17.54;61.99;100553.16;5088400;27;46387;-77
2023/04/21 09:31:39;;;;;;;;;24.33;23.33;;;;;17.55;62.45;100551.31;5101531;27;45338;-80
2023/04/21 09:34:26;;;;;;;;;27.00;26.33;;;;;17.67;62.47;100556.75;5101620;27;45403;-77
2023/04/21 09:37:04;;;;;;;;;26.67;26.67;;;;;17.65;61.06;100556.13;5101587;27;45350;-76
2023/04/21 09:39:30;;;;;;;;;53.75;41.50;;;;;17.56;61.65;100544.03;5101863;27;45248;-79
2023/04/21 09:41:57;;;;;;;;;27.67;27.00;;;;;17.53;61.80;100540.78;5083607;27;45768;-79
2023/04/21 09:44:26;;;;;;;;;31.00;30.00;;;;;17.72;61.31;100546.13;5101905;27;45315;-79
2023/04/21 09:46:58;;;;;;;;;33.33;30.67;;;;;17.65;61.42;100540.00;5101663;27;45350;-79
2023/04/21 09:49:29;;;;;;;;;31.33;30.33;;;;;17.57;60.89;100540.34;5101079;27;46339;-80
2023/04/21 09:51:56;;;;;;;;;27.00;26.00;;;;;17.63;59.79;100550.19;5091443;27;45280;-80
2023/04/21 09:54:31;;;;;;;;;24.67;21.67;;;;;17.45;60.04;100530.31;5081581;28;45336;-77
2023/04/21 09:57:03;;;;;;;;;28.33;25.00;;;;;17.40;59.30;100541.78;5081062;28;45270;-77
2023/04/21 09:59:29;;;;;;;;;25.67;25.00;;;;;17.35;59.24;100544.31;5080938;28;45939;-77
2023/04/21 10:01:58;;;;;;;;;27.33;25.67;;;;;17.42;59.70;100538.88;5081091;28;45351;-77
2023/04/21 10:04:24;;;;;;;;;28.67;27.67;;;;;17.54;60.25;100537.03;5081468;28;45336;-79
2023/04/21 10:06:50;;;;;;;;;47.75;38.50;;;;;17.69;60.21;100538.50;5080751;28;45382;-78
2023/04/21 10:09:20;;;;;;;;;28.33;28.00;;;;;17.77;59.80;100534.69;5079757;28;45341;-81
2023/04/21 10:11:45;;;;;;;;;26.33;26.33;;;;;17.96;60.20;100531.97;5081046;28;45316;-79
2023/04/21 10:14:12;;;;;;;;;22.00;21.00;;;;;18.03;59.18;100517.38;5080553;28;45353;-79
2023/04/21 10:16:38;;;;;;;;;28.67;27.33;;;;;18.28;58.75;100524.47;5080942;28;45264;-82
2023/04/21 10:19:26;;;;;;;;;45.67;38.67;;;;;18.59;58.59;100531.66;5081459;28;46106;-82
2023/04/21 10:21:56;;;;;;;;;30.67;24.00;;;;;18.75;58.42;100524.75;5082138;28;45268;-80
2023/04/21 10:24:22;;;;;;;;;155.33;138.33;;;;;19.04;58.12;100531.03;5081542;28;45299;-80
2023/04/21 10:26:49;;;;;;;;;29.00;29.00;;;;;19.14;57.47;100516.19;5081500;28;45425;-80
2023/04/21 10:29:15;;;;;;;;;25.00;23.33;;;;;19.45;57.15;100521.38;5089815;27;45331;-80
2023/04/21 10:31:43;;;;;;;;;69.75;53.00;;;;;19.81;56.57;100522.88;5101147;27;45421;-81
2023/04/21 10:34:09;;;;;;;;;45.00;37.33;;;;;20.18;56.84;100520.84;5076383;27;45471;-78
2023/04/21 10:37:04;;;;;;;;;29.00;28.67;;;;;20.55;54.10;100516.81;5066754;28;45393;-81
2023/04/21 10:39:41;;;;;;;;;25.33;22.67;;;;;20.69;54.00;100515.41;5077458;28;46246;-79
2023/04/21 10:42:12;;;;;;;;;24.00;22.00;;;;;20.95;54.61;100523.06;5083124;28;45351;-80
2023/04/21 10:44:50;;;;;;;;;26.33;25.33;;;;;21.09;52.09;100484.88;5081148;28;45313;-80
2023/04/21 10:47:30;;;;;;;;;22.67;22.67;;;;;21.33;53.22;100501.66;5083073;28;45275;-79
2023/04/21 10:49:57;;;;;;;;;29.67;28.33;;;;;21.40;52.93;100490.69;5080444;28;45649;-79
2023/04/21 10:52:32;;;;;;;;;71.50;57.25;;;;;21.57;51.82;100488.69;5081115;28;45432;-82
2023/04/21 10:54:57;;;;;;;;;27.33;26.67;;;;;21.81;51.62;100499.22;5062317;28;45374;-82
2023/04/21 10:57:22;;;;;;;;;43.00;35.33;;;;;21.75;50.63;100502.09;5062454;28;45457;-83
2023/04/21 10:59:48;;;;;;;;;36.67;30.33;;;;;21.52;51.11;100490.53;5079803;28;45332;-82
2023/04/21 11:02:16;;;;;;;;;25.33;25.33;;;;;21.65;52.12;100494.72;5078923;28;45519;-80
2023/04/21 11:04:48;;;;;;;;;50.00;39.33;;;;;21.70;50.81;100473.13;5080567;28;45225;-81
2023/04/21 11:07:15;;;;;;;;;31.00;27.00;;;;;22.04;50.34;100493.75;5080321;28;45343;-78